createdAt,value
2018-08-29T00:00:17.922Z,88.30
2018-08-29T00:02:45.043Z,88.18
2018-08-29T00:05:12.289Z,88.56
2018-08-29T00:07:45.170Z,88.68
2018-08-29T00:10:18.619Z,88.66
2018-08-29T00:12:46.409Z,88.76
2018-08-29T00:15:13.993Z,88.75
2018-08-29T00:17:41.216Z,89.38
2018-08-29T00:20:08.352Z,89.42
2018-08-29T00:22:35.531Z,89.23
2018-08-29T00:25:03.108Z,88.72
2018-08-29T00:27:30.263Z,88.41
2018-08-29T00:29:57.354Z,89.09
2018-08-29T00:32:24.571Z,89.86
2018-08-29T00:34:51.695Z,89.70
2018-08-29T00:37:18.836Z,89.44
2018-08-29T00:39:46.004Z,89.37
2018-08-29T00:42:13.130Z,89.47
2018-08-29T00:44:40.288Z,90.13
2018-08-29T00:47:07.543Z,90.48
2018-08-29T00:49:34.703Z,90.13
2018-08-29T00:52:01.817Z,90.31
2018-08-29T00:54:29.039Z,90.48
2018-08-29T00:56:56.376Z,90.35
2018-08-29T00:59:23.943Z,90.61
2018-08-29T01:01:51.139Z,90.98
2018-08-29T01:04:18.648Z,91.04
2018-08-29T01:06:45.764Z,91.01
2018-08-29T01:09:12.991Z,90.96
2018-08-29T01:11:40.130Z,90.83
2018-08-29T01:14:07.247Z,90.42
2018-08-29T01:16:34.524Z,90.74
2018-08-29T01:19:01.640Z,90.59
2018-08-29T01:21:28.900Z,90.28
2018-08-29T01:23:56.164Z,90.80
2018-08-29T01:26:23.283Z,90.71
2018-08-29T01:28:50.412Z,90.79
2018-08-29T01:31:17.643Z,91.09
2018-08-29T01:33:44.747Z,91.33
2018-08-29T01:36:11.834Z,91.04
2018-08-29T01:38:38.990Z,91.84
2018-08-29T01:41:06.160Z,91.69
2018-08-29T01:43:33.323Z,91.43
2018-08-29T01:46:00.595Z,91.74
2018-08-29T01:48:27.763Z,91.81
2018-08-29T01:50:54.909Z,92.02
2018-08-29T01:53:22.092Z,91.75
2018-08-29T01:55:49.203Z,91.54
2018-08-29T01:58:16.297Z,91.62
2018-08-29T02:00:43.470Z,92.49
2018-08-29T02:03:10.557Z,92.16
2018-08-29T02:05:37.905Z,91.85
2018-08-29T02:08:05.288Z,92.29
2018-08-29T02:10:32.416Z,92.42
2018-08-29T02:12:59.609Z,92.57
2018-08-29T02:15:26.864Z,92.38
2018-08-29T02:17:53.977Z,92.16
2018-08-29T02:20:21.097Z,92.32
2018-08-29T02:22:48.558Z,92.85
2018-08-29T02:25:15.704Z,93.19
2018-08-29T02:27:42.824Z,93.13
2018-08-29T02:30:10.109Z,93.38
2018-08-29T02:32:37.303Z,93.72
2018-08-29T02:35:04.698Z,93.91
2018-08-29T02:37:32.003Z,93.73
2018-08-29T02:39:59.132Z,93.31
2018-08-29T02:42:32.049Z,94.11
2018-08-29T02:44:59.140Z,93.96
2018-08-29T02:47:26.275Z,94.03
2018-08-29T02:49:53.426Z,94.09
2018-08-29T02:52:20.635Z,93.66
2018-08-29T02:54:47.884Z,93.95
2018-08-29T02:57:15.144Z,93.95
2018-08-29T02:59:42.263Z,94.79
2018-08-29T03:02:09.381Z,94.16
2018-08-29T03:04:36.614Z,94.62
2018-08-29T03:07:03.794Z,94.65
2018-08-29T03:09:30.932Z,95.59
2018-08-29T03:11:58.163Z,95.59
2018-08-29T03:14:25.257Z,95.13
2018-08-29T03:16:52.391Z,95.81
2018-08-29T03:19:19.677Z,95.77
2018-08-29T03:21:46.835Z,95.12
2018-08-29T03:24:14.053Z,95.09
2018-08-29T03:26:41.215Z,94.71
2018-08-29T03:29:08.308Z,94.96
2018-08-29T03:31:35.484Z,95.53
2018-08-29T03:34:02.743Z,95.37
2018-08-29T03:36:29.862Z,95.10
2018-08-29T03:38:56.970Z,95.29
2018-08-29T03:41:24.295Z,95.76
2018-08-29T03:43:51.428Z,96.31
2018-08-29T03:46:18.588Z,96.09
2018-08-29T03:48:45.753Z,95.56
2018-08-29T03:51:12.862Z,96.18
2018-08-29T03:53:40.066Z,96.55
2018-08-29T03:56:07.327Z,96.02
2018-08-29T03:58:34.549Z,96.16
2018-08-29T04:01:01.661Z,95.77
2018-08-29T04:03:31.375Z,95.68
2018-08-29T04:05:58.503Z,95.82
2018-08-29T04:08:25.653Z,96.26
2018-08-29T04:10:52.910Z,95.81
2018-08-29T04:13:20.098Z,95.96
2018-08-29T04:15:47.242Z,95.98
2018-08-29T04:18:14.649Z,96.21
2018-08-29T04:20:41.845Z,96.33
2018-08-29T04:23:09.012Z,96.12
2018-08-29T04:25:36.211Z,95.98
2018-08-29T04:28:03.375Z,96.53
2018-08-29T04:30:30.551Z,96.22
2018-08-29T04:32:57.785Z,96.70
2018-08-29T04:35:25.009Z,97.00
2018-08-29T04:37:52.117Z,97.71
2018-08-29T04:40:19.277Z,97.54
2018-08-29T04:42:46.615Z,98.39
2018-08-29T04:45:13.846Z,98.25
2018-08-29T04:47:41.056Z,97.80
2018-08-29T04:50:08.192Z,97.76
2018-08-29T04:52:35.287Z,97.75
2018-08-29T04:55:02.437Z,98.02
2018-08-29T04:57:29.702Z,97.52
2018-08-29T04:59:56.876Z,97.21
2018-08-29T05:04:39.416Z,96.77
2018-08-29T05:07:06.541Z,97.17
2018-08-29T05:09:33.725Z,96.71
2018-08-29T05:12:00.999Z,96.82
2018-08-29T05:14:28.117Z,96.02
2018-08-29T05:16:55.245Z,96.38
2018-08-29T05:19:22.440Z,95.51
2018-08-29T05:21:49.620Z,95.81
2018-08-29T05:24:16.797Z,95.23
2018-08-29T05:26:43.976Z,94.32
2018-08-29T05:29:11.130Z,94.24
2018-08-29T05:31:38.228Z,93.77
2018-08-29T05:34:05.554Z,93.19
2018-08-29T05:36:32.728Z,92.01
2018-08-29T05:38:59.897Z,92.25
2018-08-29T05:41:27.125Z,91.37
2018-08-29T05:43:55.264Z,90.22
2018-08-29T05:46:22.472Z,89.99
2018-08-29T05:48:49.687Z,88.91
2018-08-29T05:51:16.813Z,88.73
2018-08-29T05:53:43.963Z,87.43
2018-08-29T05:56:11.137Z,86.93
2018-08-29T05:58:38.310Z,84.78
2018-08-29T06:01:05.828Z,84.36
2018-08-29T06:03:33.006Z,82.33
2018-08-29T06:06:00.151Z,83.74
2018-08-29T06:08:27.260Z,81.93
2018-08-29T06:10:54.867Z,81.00
2018-08-29T06:13:22.244Z,79.65
2018-08-29T06:15:49.368Z,79.48
2018-08-29T06:18:16.548Z,78.74
2018-08-29T06:20:43.651Z,78.66
2018-08-29T06:23:10.834Z,78.00
2018-08-29T06:25:38.040Z,76.13
2018-08-29T06:28:05.184Z,76.41
2018-08-29T06:30:32.316Z,75.80
2018-08-29T06:32:59.557Z,75.06
2018-08-29T06:35:26.873Z,73.66
2018-08-29T06:37:54.018Z,73.27
2018-08-29T06:40:21.171Z,71.70
2018-08-29T06:42:48.301Z,70.78
2018-08-29T06:45:15.407Z,71.34
2018-08-29T06:47:42.655Z,70.33
2018-08-29T06:50:09.896Z,69.86
2018-08-29T06:52:37.016Z,70.34
2018-08-29T06:55:04.236Z,70.72
2018-08-29T06:57:32.168Z,71.23
2018-08-29T07:00:00.336Z,71.17
2018-08-29T07:02:27.628Z,68.45
2018-08-29T07:04:54.725Z,70.84
2018-08-29T07:07:21.847Z,67.20
2018-08-29T07:09:49.071Z,68.15
2018-08-29T07:12:16.239Z,68.74
2018-08-29T07:14:43.413Z,66.83
2018-08-29T07:17:10.560Z,65.15
2018-08-29T07:19:37.714Z,64.82
2018-08-29T07:22:04.895Z,65.87
2018-08-29T07:24:32.145Z,63.71
2018-08-29T07:27:00.871Z,61.64
2018-08-29T07:29:28.146Z,60.19
2018-08-29T07:31:55.233Z,61.54
2018-08-29T07:34:22.378Z,60.42
2018-08-29T07:36:49.594Z,59.05
2018-08-29T07:39:16.939Z,60.18
2018-08-29T07:41:44.065Z,58.18
2018-08-29T07:44:11.192Z,59.70
2018-08-29T07:46:38.366Z,57.29
2018-08-29T07:49:05.605Z,56.18
2018-08-29T07:51:32.772Z,55.99
2018-08-29T07:53:59.963Z,56.29
2018-08-29T07:56:27.077Z,54.39
2018-08-29T07:58:55.159Z,54.64
2018-08-29T08:01:22.529Z,56.68
2018-08-29T08:03:49.604Z,54.99
2018-08-29T08:06:16.728Z,50.62
2018-08-29T08:08:49.941Z,50.00
2018-08-29T08:11:18.075Z,50.39
2018-08-29T08:13:45.535Z,49.43
2018-08-29T08:16:13.013Z,52.43
2018-08-29T08:18:40.256Z,48.92
2018-08-29T08:21:08.431Z,47.52
2018-08-29T08:23:35.653Z,47.81
2018-08-29T08:26:03.207Z,47.36
2018-08-29T08:28:30.495Z,44.91
2018-08-29T08:30:58.060Z,44.19
2018-08-29T08:33:25.477Z,44.90
2018-08-29T08:35:53.263Z,43.76
2018-08-29T08:38:20.921Z,43.54
2018-08-29T08:40:48.683Z,43.55
2018-08-29T08:43:16.426Z,42.18
2018-08-29T08:45:43.649Z,41.37
2018-08-29T08:48:10.939Z,41.93
2018-08-29T08:50:38.289Z,41.79
2018-08-29T08:53:06.877Z,41.75
2018-08-29T08:55:34.012Z,42.48
2018-08-29T08:58:01.210Z,42.27
2018-08-29T09:00:28.382Z,42.50
2018-08-29T09:02:55.832Z,41.08
2018-08-29T09:05:23.033Z,41.07
2018-08-29T09:07:50.166Z,38.51
2018-08-29T09:10:17.269Z,38.85
2018-08-29T09:12:44.394Z,37.46
2018-08-29T09:15:11.649Z,40.35
2018-08-29T09:17:38.815Z,40.16
2018-08-29T09:20:05.948Z,38.43
2018-08-29T09:22:33.125Z,35.89
2018-08-29T09:25:00.240Z,37.40
2018-08-29T09:27:27.431Z,37.69
2018-08-29T09:29:54.685Z,37.29
2018-08-29T09:32:21.812Z,36.25
2018-08-29T09:34:48.959Z,36.99
2018-08-29T09:37:16.184Z,35.96
2018-08-29T09:39:43.462Z,36.03
2018-08-29T09:42:10.614Z,35.48
2018-08-29T09:44:37.792Z,36.11
2018-08-29T09:47:05.674Z,33.64
2018-08-29T09:49:32.774Z,34.57
2018-08-29T09:52:00.124Z,35.61
2018-08-29T09:54:27.337Z,36.59
2018-08-29T09:56:54.505Z,35.42
2018-08-29T09:59:22.683Z,33.47
2018-08-29T10:01:56.116Z,33.41
2018-08-29T10:04:23.596Z,33.58
2018-08-29T10:06:50.756Z,33.25
2018-08-29T10:09:17.877Z,34.35
2018-08-29T10:11:45.124Z,33.33
2018-08-29T10:14:12.294Z,31.60
2018-08-29T10:16:39.587Z,34.73
2018-08-29T10:19:06.843Z,33.13
2018-08-29T10:21:33.981Z,33.25
2018-08-29T10:24:01.172Z,31.53
2018-08-29T10:26:28.331Z,32.15
2018-08-29T10:28:55.565Z,31.33
2018-08-29T10:31:22.764Z,30.76
2018-08-29T10:33:49.922Z,31.43
2018-08-29T10:36:17.181Z,31.57
2018-08-29T10:38:46.354Z,30.78
2018-08-29T10:41:13.721Z,31.21
2018-08-29T10:43:40.899Z,30.44
2018-08-29T10:46:08.024Z,30.85
2018-08-29T10:48:35.188Z,30.88
2018-08-29T10:51:02.297Z,31.31
2018-08-29T10:53:30.459Z,32.72
2018-08-29T10:55:57.676Z,31.44
2018-08-29T10:58:24.776Z,30.96
2018-08-29T11:00:52.367Z,29.89
2018-08-29T11:03:19.529Z,31.34
2018-08-29T11:05:46.727Z,30.59
2018-08-29T11:08:13.887Z,30.38
2018-08-29T11:10:41.084Z,28.80
2018-08-29T11:13:08.284Z,30.48
2018-08-29T11:15:35.475Z,29.53
2018-08-29T11:18:02.861Z,29.29
2018-08-29T11:20:30.136Z,30.13
2018-08-29T11:22:57.249Z,30.07
2018-08-29T11:25:24.396Z,29.51
2018-08-29T11:27:51.579Z,32.16
2018-08-29T11:30:18.804Z,27.94
2018-08-29T11:32:46.224Z,28.75
2018-08-29T11:35:13.355Z,28.16
2018-08-29T11:37:40.485Z,29.59
2018-08-29T11:40:07.746Z,28.91
2018-08-29T11:42:35.040Z,29.85
2018-08-29T11:45:02.267Z,29.82
2018-08-29T11:47:29.449Z,30.11
2018-08-29T11:49:56.546Z,30.68
2018-08-29T11:52:23.671Z,30.33
2018-08-29T11:54:50.959Z,30.66
2018-08-29T11:57:18.129Z,30.24
2018-08-29T11:59:45.245Z,30.77
2018-08-29T12:02:12.452Z,30.71
2018-08-29T12:04:39.519Z,31.92
2018-08-29T12:07:06.701Z,31.79
2018-08-29T12:09:34.055Z,31.54
2018-08-29T12:12:01.130Z,31.15
2018-08-29T12:14:28.269Z,32.24
2018-08-29T12:16:55.429Z,31.84
2018-08-29T12:19:22.773Z,32.30
2018-08-29T12:21:50.052Z,32.55
2018-08-29T12:24:17.235Z,32.45
2018-08-29T12:26:45.472Z,33.00
2018-08-29T12:29:12.584Z,32.15
2018-08-29T12:31:39.845Z,32.55
2018-08-29T12:34:06.987Z,32.95
2018-08-29T12:36:34.144Z,33.49
2018-08-29T12:39:01.376Z,33.51
2018-08-29T12:41:28.934Z,33.16
2018-08-29T12:43:56.233Z,33.22
2018-08-29T12:46:23.452Z,33.28
2018-08-29T12:48:51.147Z,32.42
2018-08-29T12:51:18.277Z,32.71
2018-08-29T12:53:45.458Z,32.48
2018-08-29T12:56:12.770Z,33.77
2018-08-29T12:58:40.280Z,33.21
2018-08-29T13:01:07.489Z,33.44
2018-08-29T13:03:34.768Z,34.05
2018-08-29T13:06:01.943Z,33.79
2018-08-29T13:08:29.179Z,34.20
2018-08-29T13:10:56.389Z,33.25
2018-08-29T13:13:23.517Z,32.66
2018-08-29T13:15:50.671Z,32.23
2018-08-29T13:18:17.785Z,32.27
2018-08-29T13:20:45.503Z,33.86
2018-08-29T13:23:12.739Z,32.78
2018-08-29T13:25:40.828Z,33.09
2018-08-29T13:28:08.098Z,32.34
2018-08-29T13:30:35.375Z,31.92
2018-08-29T13:33:02.551Z,33.27
2018-08-29T13:35:29.872Z,33.17
2018-08-29T13:37:57.032Z,33.13
2018-08-29T13:40:24.182Z,33.16
2018-08-29T13:42:51.305Z,32.34
2018-08-29T13:45:18.536Z,32.13
2018-08-29T13:47:45.738Z,32.45
2018-08-29T13:50:12.885Z,32.73
2018-08-29T13:52:40.106Z,34.34
2018-08-29T13:55:07.261Z,32.27
2018-08-29T13:57:34.480Z,31.84
2018-08-29T14:00:01.711Z,32.13
2018-08-29T14:02:28.923Z,32.74
2018-08-29T14:04:56.019Z,31.89
2018-08-29T14:07:23.198Z,32.73
2018-08-29T14:09:50.399Z,31.98
2018-08-29T14:12:17.574Z,31.71
2018-08-29T14:14:44.756Z,31.83
2018-08-29T14:17:11.875Z,31.39
2018-08-29T14:19:38.996Z,32.68
2018-08-29T14:22:06.245Z,31.10
2018-08-29T14:24:33.434Z,31.96
2018-08-29T14:27:00.653Z,31.99
2018-08-29T14:29:27.818Z,32.24
2018-08-29T14:31:54.952Z,32.18
2018-08-29T14:34:22.157Z,31.15
2018-08-29T14:36:49.419Z,31.64
2018-08-29T14:39:16.544Z,32.46
2018-08-29T14:41:43.662Z,31.14
2018-08-29T14:44:10.796Z,31.29
2018-08-29T14:46:37.998Z,32.05
2018-08-29T14:49:05.200Z,31.24
2018-08-29T14:51:32.388Z,31.49
2018-08-29T14:53:59.509Z,31.70
2018-08-29T14:56:26.632Z,32.15
2018-08-29T14:58:53.860Z,31.95
2018-08-29T15:01:32.617Z,31.40
2018-08-29T15:04:26.332Z,32.08
2018-08-29T15:06:53.402Z,31.58
2018-08-29T15:09:21.231Z,32.55
2018-08-29T15:11:48.754Z,31.95
2018-08-29T15:14:16.278Z,32.00
2018-08-29T15:16:44.272Z,32.28
2018-08-29T15:19:11.560Z,31.47
2018-08-29T15:21:38.738Z,32.10
2018-08-29T15:24:05.981Z,31.76
2018-08-29T15:26:33.281Z,32.31
2018-08-29T15:29:00.455Z,33.07
2018-08-29T15:31:27.501Z,32.66
2018-08-29T15:33:55.545Z,31.93
2018-08-29T15:36:22.767Z,31.82
2018-08-29T15:38:49.992Z,32.45
2018-08-29T15:41:17.184Z,32.22
2018-08-29T15:43:44.302Z,32.77
2018-08-29T15:46:11.526Z,32.93
2018-08-29T15:48:38.886Z,33.22
2018-08-29T15:51:05.969Z,33.28
2018-08-29T15:53:33.115Z,33.29
2018-08-29T15:56:00.276Z,33.42
2018-08-29T15:58:27.486Z,33.74
2018-08-29T16:00:55.053Z,32.97
2018-08-29T16:03:22.236Z,33.82
2018-08-29T16:05:49.364Z,33.31
2018-08-29T16:08:16.576Z,33.63
2018-08-29T16:10:43.809Z,34.46
2018-08-29T16:13:10.971Z,34.73
2018-08-29T16:15:38.107Z,34.14
2018-08-29T16:18:05.407Z,33.76
2018-08-29T16:20:32.545Z,33.59
2018-08-29T16:25:33.714Z,33.64
2018-08-29T16:28:01.090Z,34.24
2018-08-29T16:30:28.684Z,34.43
2018-08-29T16:32:56.817Z,34.18
2018-08-29T16:35:25.005Z,34.55
2018-08-29T16:37:52.246Z,35.39
2018-08-29T16:40:19.895Z,35.65
2018-08-29T16:42:47.466Z,35.44
2018-08-29T16:45:18.402Z,34.60
2018-08-29T16:47:46.418Z,35.59
2018-08-29T16:50:14.022Z,35.37
2018-08-29T16:52:41.728Z,35.24
2018-08-29T16:55:08.891Z,35.95
2018-08-29T16:57:35.991Z,35.78
2018-08-29T17:00:03.241Z,37.08
2018-08-29T17:02:30.467Z,36.78
2018-08-29T17:04:57.669Z,37.21
2018-08-29T17:07:24.938Z,37.30
2018-08-29T17:09:52.673Z,36.93
2018-08-29T17:12:21.684Z,36.98
2018-08-29T17:14:49.000Z,37.42
2018-08-29T17:17:17.100Z,37.22
2018-08-29T17:19:44.253Z,37.87
2018-08-29T17:22:11.520Z,37.56
2018-08-29T17:24:38.891Z,38.64
2018-08-29T17:27:08.452Z,38.06
2018-08-29T17:29:35.756Z,38.01
2018-08-29T17:32:03.171Z,38.45
2018-08-29T17:34:30.291Z,38.74
2018-08-29T17:36:57.522Z,40.02
2018-08-29T17:39:24.787Z,40.69
2018-08-29T17:41:52.362Z,40.52
2018-08-29T17:44:19.569Z,40.89
2018-08-29T17:46:46.789Z,41.31
2018-08-29T17:49:13.935Z,41.30
2018-08-29T17:51:41.148Z,41.62
2018-08-29T17:54:08.347Z,41.45
2018-08-29T17:56:35.524Z,41.84
2018-08-29T17:59:02.631Z,42.56
2018-08-29T18:01:29.876Z,43.78
2018-08-29T18:03:57.069Z,44.47
2018-08-29T18:06:24.207Z,45.45
2018-08-29T18:08:51.829Z,46.43
2018-08-29T18:11:19.676Z,46.63
2018-08-29T18:13:47.013Z,48.50
2018-08-29T18:16:14.383Z,47.53
2018-08-29T18:18:41.585Z,48.37
2018-08-29T18:21:09.865Z,49.11
2018-08-29T18:23:37.650Z,48.48
2018-08-29T18:26:05.065Z,49.75
2018-08-29T18:28:32.508Z,48.42
2018-08-29T18:30:59.843Z,49.33
2018-08-29T18:33:26.915Z,48.92
2018-08-29T18:35:54.097Z,48.59
2018-08-29T18:38:21.357Z,49.64
2018-08-29T18:40:48.589Z,51.04
2018-08-29T18:43:15.854Z,51.69
2018-08-29T18:45:42.952Z,52.49
2018-08-29T18:48:10.065Z,52.35
2018-08-29T18:50:37.269Z,53.79
2018-08-29T18:53:04.847Z,54.73
2018-08-29T18:55:31.956Z,55.16
2018-08-29T18:57:59.063Z,55.94
2018-08-29T19:00:26.380Z,56.76
2018-08-29T19:02:53.637Z,56.54
2018-08-29T19:05:20.938Z,56.90
2018-08-29T19:07:48.214Z,57.52
2018-08-29T19:10:15.437Z,57.01
2018-08-29T19:12:42.628Z,56.01
2018-08-29T19:15:09.904Z,57.17
2018-08-29T19:17:37.144Z,56.69
2018-08-29T19:20:04.351Z,58.43
2018-08-29T19:22:31.612Z,58.33
2018-08-29T19:24:58.855Z,59.03
2018-08-29T19:27:26.179Z,58.50
2018-08-29T19:29:53.554Z,58.22
2018-08-29T19:32:20.675Z,56.17
2018-08-29T19:34:47.923Z,55.31
2018-08-29T19:37:15.180Z,52.65
2018-08-29T19:39:42.418Z,52.53
2018-08-29T19:42:09.612Z,51.53
2018-08-29T19:44:36.784Z,51.00
2018-08-29T19:47:03.936Z,50.48
2018-08-29T19:49:31.071Z,51.04
2018-08-29T19:52:02.408Z,49.62
2018-08-29T19:54:29.762Z,49.24
2018-08-29T19:56:56.875Z,49.05
2018-08-29T19:59:24.054Z,48.94
2018-08-29T20:01:51.163Z,48.84
2018-08-29T20:04:18.352Z,48.48
2018-08-29T20:06:45.593Z,48.44
2018-08-29T20:09:12.898Z,48.60
2018-08-29T20:11:40.152Z,49.34
2018-08-29T20:14:07.686Z,49.58
2018-08-29T20:16:34.995Z,48.62
2018-08-29T20:19:02.172Z,49.11
2018-08-29T20:21:29.334Z,49.21
2018-08-29T20:23:56.467Z,49.59
2018-08-29T20:26:24.175Z,49.64
2018-08-29T20:28:52.401Z,48.89
2018-08-29T20:31:19.581Z,48.75
2018-08-29T20:33:47.771Z,48.45
2018-08-29T20:36:15.096Z,48.40
2018-08-29T20:38:42.232Z,48.61
2018-08-29T20:41:09.452Z,48.80
2018-08-29T20:43:36.750Z,48.31
2018-08-29T20:46:03.951Z,48.11
2018-08-29T20:48:31.071Z,48.40
2018-08-29T20:50:58.338Z,47.79
2018-08-29T20:53:25.564Z,47.67
2018-08-29T20:55:53.847Z,48.45
2018-08-29T20:58:21.207Z,47.61
2018-08-29T21:00:49.477Z,48.39
2018-08-29T21:03:16.628Z,47.93
2018-08-29T21:05:43.907Z,47.49
2018-08-29T21:08:11.274Z,48.70
2018-08-29T21:10:38.459Z,48.23
2018-08-29T21:13:05.642Z,48.44
2018-08-29T21:15:32.791Z,48.48
2018-08-29T21:18:00.247Z,47.96
2018-08-29T21:20:27.481Z,48.30
2018-08-29T21:22:55.645Z,48.71
2018-08-29T21:25:22.808Z,48.12
2018-08-29T21:28:01.547Z,48.31
2018-08-29T21:30:40.306Z,48.38
2018-08-29T21:36:23.806Z,49.64
2018-08-29T21:38:50.905Z,49.48
2018-08-29T21:41:18.192Z,48.72
2018-08-29T21:44:05.796Z,49.25
2018-08-29T21:46:45.889Z,49.50
2018-08-29T21:51:32.867Z,48.98
2018-08-29T21:54:24.907Z,48.57
2018-08-29T21:57:00.535Z,48.73
2018-08-29T21:59:42.147Z,48.92
2018-08-29T22:02:21.747Z,48.79
2018-08-29T22:04:59.343Z,49.14
2018-08-29T22:07:26.576Z,48.79
2018-08-29T22:09:53.689Z,49.10
2018-08-29T22:12:20.841Z,48.76
2018-08-29T22:14:48.260Z,49.58
2018-08-29T22:17:15.465Z,49.43
2018-08-29T22:19:42.584Z,48.78
2018-08-29T22:22:09.755Z,49.49
2018-08-29T22:24:36.927Z,49.07
2018-08-29T22:27:06.210Z,49.37
2018-08-29T22:29:33.387Z,49.84
2018-08-29T22:32:00.528Z,49.79
2018-08-29T22:34:27.635Z,50.04
2018-08-29T22:36:54.918Z,49.54
2018-08-29T22:39:22.233Z,49.59
2018-08-29T22:41:49.380Z,50.10
2018-08-29T22:44:16.529Z,50.05
2018-08-29T22:46:43.636Z,50.00
2018-08-29T22:49:11.378Z,49.40
2018-08-29T22:51:38.628Z,50.14
2018-08-29T22:54:05.756Z,50.45
2018-08-29T22:56:32.868Z,50.25
2018-08-29T22:59:00.027Z,50.40
2018-08-29T23:01:27.332Z,50.23
2018-08-29T23:03:54.876Z,50.12
2018-08-29T23:06:22.691Z,50.68
2018-08-29T23:08:49.800Z,51.20
2018-08-29T23:11:16.948Z,50.65
2018-08-29T23:13:44.169Z,51.06
2018-08-29T23:16:11.400Z,51.08
2018-08-29T23:18:38.503Z,50.97
2018-08-29T23:21:05.745Z,51.41
2018-08-29T23:23:32.884Z,50.93
2018-08-29T23:26:00.045Z,51.84
2018-08-29T23:28:27.311Z,51.79
2018-08-29T23:30:54.447Z,51.90
2018-08-29T23:33:21.592Z,51.44
2018-08-29T23:35:48.749Z,52.73
2018-08-29T23:38:15.987Z,53.29
2018-08-29T23:40:43.444Z,52.41
2018-08-29T23:43:10.624Z,52.82
2018-08-29T23:45:37.727Z,53.58
2018-08-29T23:48:05.301Z,54.52
2018-08-29T23:50:32.614Z,56.33
2018-08-29T23:52:59.823Z,57.31
2018-08-29T23:55:26.961Z,58.71
2018-08-29T23:57:54.147Z,58.23
